createdAt,value
2022-09-07T00:00:07.041Z,19.28
2022-09-07T00:01:07.133Z,19.29
2022-09-07T00:02:07.059Z,19.29
2022-09-07T00:03:07.154Z,19.28
2022-09-07T00:04:07.066Z,19.28
2022-09-07T00:05:06.962Z,19.26
2022-09-07T00:06:06.988Z,19.26
2022-09-07T00:07:07.030Z,19.26
2022-09-07T00:08:06.950Z,19.26
2022-09-07T00:09:06.937Z,19.26
2022-09-07T00:10:06.893Z,19.26
2022-09-07T00:11:06.918Z,19.26
2022-09-07T00:12:06.833Z,19.26
2022-09-07T00:13:07.067Z,19.28
2022-09-07T00:14:06.917Z,19.28
2022-09-07T00:15:06.933Z,19.25
2022-09-07T00:16:06.896Z,19.23
2022-09-07T00:17:10.698Z,19.22
2022-09-07T00:18:06.811Z,19.21
2022-09-07T00:19:06.842Z,19.21
2022-09-07T00:20:06.883Z,19.19
2022-09-07T00:21:07.001Z,19.22
2022-09-07T00:22:06.780Z,19.22
2022-09-07T00:23:06.806Z,19.25
2022-09-07T00:24:06.762Z,19.26
2022-09-07T00:25:06.784Z,19.26
2022-09-07T00:26:06.790Z,19.28
2022-09-07T00:27:06.998Z,19.28
2022-09-07T00:28:06.747Z,19.26
2022-09-07T00:29:06.702Z,19.26
2022-09-07T00:30:06.712Z,19.26
2022-09-07T00:31:06.853Z,19.26
2022-09-07T00:32:06.623Z,19.26
2022-09-07T00:33:06.841Z,19.26
2022-09-07T00:34:06.647Z,19.25
2022-09-07T00:35:06.659Z,19.22
2022-09-07T00:36:06.640Z,19.23
2022-09-07T00:37:06.666Z,19.25
2022-09-07T00:38:06.733Z,19.25
2022-09-07T00:39:06.623Z,19.25
2022-09-07T00:40:06.664Z,19.28
2022-09-07T00:41:06.787Z,19.31
2022-09-07T00:42:06.596Z,19.28
2022-09-07T00:43:06.537Z,19.29
2022-09-07T00:44:06.593Z,19.32
2022-09-07T00:45:06.500Z,19.31
2022-09-07T00:46:06.500Z,19.31
2022-09-07T00:47:06.466Z,19.31
2022-09-07T00:48:06.477Z,19.31
2022-09-07T00:49:06.439Z,19.31
2022-09-07T00:50:06.454Z,19.31
2022-09-07T00:51:07.083Z,19.31
2022-09-07T00:52:06.735Z,19.32
2022-09-07T00:53:06.640Z,19.31
2022-09-07T00:54:06.797Z,19.32
2022-09-07T00:55:06.766Z,19.32
2022-09-07T00:56:06.522Z,19.33
2022-09-07T00:57:06.988Z,19.31
2022-09-07T00:58:07.699Z,19.32
2022-09-07T00:59:07.086Z,19.33
2022-09-07T01:00:06.671Z,19.33
2022-09-07T01:01:06.966Z,19.32
2022-09-07T01:02:06.518Z,19.36
2022-09-07T01:03:06.743Z,19.33
2022-09-07T01:04:06.587Z,19.36
2022-09-07T01:05:09.519Z,19.37
2022-09-07T01:06:17.244Z,19.37
2022-09-07T01:07:06.808Z,19.37
2022-09-07T01:08:06.945Z,19.39
2022-09-07T01:09:06.669Z,19.39
2022-09-07T01:10:06.795Z,19.41
2022-09-07T01:11:06.697Z,19.43
2022-09-07T01:12:06.800Z,19.44
2022-09-07T01:13:06.587Z,19.44
2022-09-07T01:14:06.453Z,19.43
2022-09-07T01:15:06.772Z,19.44
2022-09-07T01:16:06.674Z,19.44
2022-09-07T01:17:06.696Z,19.44
2022-09-07T01:18:06.483Z,19.44
2022-09-07T01:19:07.594Z,19.41
2022-09-07T01:20:07.337Z,19.43
2022-09-07T01:21:06.931Z,19.44
2022-09-07T01:22:06.926Z,19.44
2022-09-07T01:23:08.555Z,19.44
2022-09-07T01:24:07.024Z,19.46
2022-09-07T01:25:06.463Z,19.46
2022-09-07T01:26:06.356Z,19.47
2022-09-07T01:27:06.778Z,19.48
2022-09-07T01:28:06.711Z,19.50
2022-09-07T01:29:06.686Z,19.47
2022-09-07T01:30:06.530Z,19.47
2022-09-07T01:31:06.671Z,19.47
2022-09-07T01:32:06.444Z,19.48
2022-09-07T01:33:06.586Z,19.48
2022-09-07T01:34:06.713Z,19.54
2022-09-07T01:35:06.710Z,19.55
2022-09-07T01:36:06.580Z,19.54
2022-09-07T01:37:06.531Z,19.56
2022-09-07T01:38:06.145Z,19.56
2022-09-07T01:39:06.543Z,19.56
2022-09-07T01:40:06.392Z,19.55
2022-09-07T01:41:06.691Z,19.55
2022-09-07T01:42:06.568Z,19.54
2022-09-07T01:43:06.317Z,19.59
2022-09-07T01:44:06.438Z,19.61
2022-09-07T01:45:06.097Z,19.62
2022-09-07T01:46:06.117Z,19.61
2022-09-07T01:47:06.426Z,19.62
2022-09-07T01:48:06.261Z,19.58
2022-09-07T01:49:06.006Z,19.62
2022-09-07T01:50:06.496Z,19.62
2022-09-07T01:51:05.903Z,19.65
2022-09-07T01:52:06.332Z,19.68
2022-09-07T01:53:06.192Z,19.71
2022-09-07T01:54:06.425Z,19.74
2022-09-07T01:55:05.942Z,19.77
2022-09-07T01:56:06.554Z,19.87
2022-09-07T01:57:06.293Z,19.96
2022-09-07T01:58:06.858Z,20.08
2022-09-07T01:59:05.816Z,20.21
2022-09-07T02:00:06.776Z,20.31
2022-09-07T02:01:05.704Z,20.39
2022-09-07T02:02:06.469Z,20.48
2022-09-07T02:03:05.797Z,20.57
2022-09-07T02:04:05.696Z,20.62
2022-09-07T02:05:05.728Z,20.66
2022-09-07T02:06:05.910Z,20.69
2022-09-07T02:07:05.775Z,20.74
2022-09-07T02:08:05.716Z,20.76
2022-09-07T02:09:05.637Z,20.77
2022-09-07T02:10:05.618Z,20.79
2022-09-07T02:11:05.891Z,20.79
2022-09-07T02:12:05.611Z,20.77
2022-09-07T02:13:05.637Z,20.74
2022-09-07T02:14:05.688Z,20.69
2022-09-07T02:15:05.754Z,20.67
2022-09-07T02:16:05.702Z,20.64
2022-09-07T02:17:05.641Z,20.64
2022-09-07T02:18:05.679Z,20.59
2022-09-07T02:19:05.571Z,20.55
2022-09-07T02:20:05.675Z,20.54
2022-09-07T02:21:05.877Z,20.52
2022-09-07T02:22:05.718Z,20.52
2022-09-07T02:23:05.668Z,20.52
2022-09-07T02:24:05.736Z,20.51
2022-09-07T02:25:05.799Z,20.51
2022-09-07T02:26:05.738Z,20.50
2022-09-07T02:27:06.076Z,20.43
2022-09-07T02:28:05.458Z,20.39
2022-09-07T02:29:05.385Z,20.41
2022-09-07T02:30:05.360Z,20.35
2022-09-07T02:31:05.456Z,20.29
2022-09-07T02:32:05.388Z,20.23
2022-09-07T02:33:05.339Z,20.17
2022-09-07T02:34:05.334Z,20.11
2022-09-07T02:35:05.431Z,20.06
2022-09-07T02:36:05.412Z,20.05
2022-09-07T02:37:05.327Z,20.02
2022-09-07T02:38:05.474Z,20.02
2022-09-07T02:39:05.285Z,20.02
2022-09-07T02:40:05.355Z,19.99
2022-09-07T02:41:05.297Z,19.95
2022-09-07T02:42:05.711Z,19.94
2022-09-07T02:43:05.621Z,19.95
2022-09-07T02:44:05.210Z,19.92
2022-09-07T02:45:05.277Z,19.88
2022-09-07T02:46:05.301Z,19.87
2022-09-07T02:47:05.329Z,19.87
2022-09-07T02:48:05.356Z,19.84
2022-09-07T02:49:05.357Z,19.86
2022-09-07T02:50:05.192Z,19.84
2022-09-07T02:51:05.213Z,19.83
2022-09-07T02:52:05.245Z,19.81
2022-09-07T02:53:05.120Z,19.80
2022-09-07T02:54:05.156Z,19.78
2022-09-07T02:55:05.401Z,19.77
2022-09-07T02:56:05.295Z,19.73
2022-09-07T02:57:05.351Z,19.73
2022-09-07T02:58:05.146Z,19.71
2022-09-07T02:59:05.263Z,19.69
2022-09-07T03:00:05.210Z,19.63
2022-09-07T03:01:05.261Z,19.65
2022-09-07T03:02:05.709Z,19.63
2022-09-07T03:03:05.142Z,19.61
2022-09-07T03:04:05.174Z,19.59
2022-09-07T03:16:26.992Z,19.25
2022-09-07T03:17:26.332Z,19.22
2022-09-07T03:18:26.650Z,19.21
2022-09-07T03:19:26.224Z,19.19
2022-09-07T03:20:26.133Z,19.16
2022-09-07T03:21:26.374Z,19.14
2022-09-07T03:22:26.107Z,19.10
2022-09-07T03:23:26.849Z,19.11
2022-09-07T03:24:25.947Z,19.10
2022-09-07T03:25:26.346Z,19.07
2022-09-07T03:26:26.055Z,19.06
2022-09-07T03:27:26.027Z,19.06
2022-09-07T03:33:17.836Z,18.98
2022-09-07T03:34:16.851Z,18.94
2022-09-07T03:35:16.904Z,18.98
2022-09-07T03:36:16.637Z,18.98
2022-09-07T03:37:16.724Z,18.95
2022-09-07T03:38:16.631Z,18.95
2022-09-07T03:39:17.276Z,18.95
2022-09-07T03:40:17.001Z,18.94
2022-09-07T03:41:16.700Z,18.92
2022-09-07T03:42:16.710Z,18.92
2022-09-07T03:43:16.489Z,18.91
2022-09-07T03:44:16.548Z,18.90
2022-09-07T03:45:16.426Z,18.88
2022-09-07T03:46:16.611Z,18.88
2022-09-07T03:47:16.485Z,18.87
2022-09-07T03:48:16.520Z,18.85
2022-09-07T03:49:16.406Z,18.84
2022-09-07T03:50:16.457Z,18.84
2022-09-07T03:51:19.452Z,18.84
2022-09-07T03:52:20.100Z,18.82
2022-09-07T03:53:19.455Z,18.81
2022-09-07T03:54:21.683Z,18.78
2022-09-07T03:55:26.765Z,18.76
2022-09-07T03:56:20.970Z,18.76
2022-09-07T03:57:19.349Z,18.73
2022-09-07T03:58:18.206Z,18.69
2022-09-07T03:59:17.189Z,18.67
2022-09-07T04:00:18.878Z,18.62
2022-09-07T04:01:18.620Z,18.58
2022-09-07T04:02:18.271Z,18.54
2022-09-07T04:03:16.857Z,18.54
2022-09-07T04:04:18.249Z,18.54
2022-09-07T04:05:16.944Z,18.50
2022-09-07T04:06:17.212Z,18.45
2022-09-07T04:07:18.947Z,18.42
2022-09-07T04:08:18.224Z,18.36
2022-09-07T04:09:19.570Z,18.32
2022-09-07T04:10:17.485Z,18.26
2022-09-07T04:11:17.645Z,18.21
2022-09-07T04:12:16.461Z,18.18
2022-09-07T04:13:39.074Z,18.11
2022-09-07T04:14:40.018Z,18.10
2022-09-07T04:21:51.705Z,17.93
2022-09-07T04:22:03.099Z,17.95
2022-09-07T04:26:54.261Z,17.87
2022-09-07T04:27:54.236Z,17.84
2022-09-07T04:28:54.208Z,17.81
2022-09-07T04:29:54.298Z,17.81
2022-09-07T04:30:54.242Z,17.81
2022-09-07T04:31:54.191Z,17.81
2022-09-07T04:32:54.157Z,17.84
2022-09-07T04:33:54.153Z,17.82
2022-09-07T04:34:54.184Z,17.81
2022-09-07T04:35:54.145Z,17.81
2022-09-07T04:36:54.137Z,17.81
2022-09-07T04:37:54.132Z,17.79
2022-09-07T04:38:54.113Z,17.79
2022-09-07T04:39:54.208Z,17.79
2022-09-07T04:40:54.071Z,17.81
2022-09-07T04:41:54.087Z,17.79
2022-09-07T04:42:54.053Z,17.78
2022-09-07T04:43:54.074Z,17.79
2022-09-07T04:44:54.042Z,17.78
2022-09-07T04:45:54.129Z,17.79
2022-09-07T04:46:54.028Z,17.78
2022-09-07T04:47:54.021Z,17.78
2022-09-07T04:48:54.024Z,17.78
2022-09-07T04:49:54.031Z,17.77
2022-09-07T04:50:53.996Z,17.77
2022-09-07T04:51:54.013Z,17.77
2022-09-07T04:52:53.983Z,17.78
2022-09-07T04:53:53.989Z,17.78
2022-09-07T04:54:53.931Z,17.78
2022-09-07T04:55:53.954Z,17.78
2022-09-07T04:56:53.932Z,17.78
2022-09-07T04:57:53.919Z,17.79
2022-09-07T04:58:53.890Z,17.78
2022-09-07T04:59:53.887Z,17.78
2022-09-07T05:00:53.908Z,17.81
2022-09-07T05:01:53.937Z,17.79
2022-09-07T05:02:53.870Z,17.81
2022-09-07T05:03:53.843Z,17.81
2022-09-07T05:04:53.836Z,17.79
2022-09-07T05:05:54.292Z,17.81
2022-09-07T05:06:53.811Z,17.78
2022-09-07T05:07:53.807Z,17.78
2022-09-07T05:08:53.785Z,17.79
2022-09-07T05:09:53.783Z,17.78
2022-09-07T05:10:53.774Z,17.78
2022-09-07T05:11:53.770Z,17.75
2022-09-07T05:12:53.741Z,17.77
2022-09-07T05:13:53.736Z,17.77
2022-09-07T05:14:53.743Z,17.75
2022-09-07T05:15:53.710Z,17.75
2022-09-07T05:16:53.724Z,17.72
2022-09-07T05:17:53.698Z,17.72
2022-09-07T05:18:53.702Z,17.68
2022-09-07T05:19:53.678Z,17.66
2022-09-07T05:20:53.646Z,17.63
2022-09-07T05:21:53.646Z,17.63
2022-09-07T05:22:53.638Z,17.62
2022-09-07T05:23:53.633Z,17.62
2022-09-07T05:24:53.654Z,17.62
2022-09-07T05:25:53.625Z,17.62
2022-09-07T05:26:53.613Z,17.62
2022-09-07T05:27:53.587Z,17.63
2022-09-07T05:30:03.462Z,17.64
2022-09-07T05:31:54.550Z,17.70
2022-09-07T05:32:53.539Z,17.71
2022-09-07T05:34:54.524Z,17.74
2022-09-07T05:35:53.512Z,17.75
2022-09-07T05:36:53.536Z,17.79
2022-09-07T05:37:53.484Z,17.78
2022-09-07T05:38:53.477Z,17.78
2022-09-07T05:39:53.498Z,17.81
2022-09-07T05:40:53.452Z,17.82
2022-09-07T05:41:53.449Z,17.86
2022-09-07T05:42:53.440Z,17.87
2022-09-07T05:44:54.434Z,17.86
2022-09-07T05:45:53.453Z,17.87
2022-09-07T05:46:53.380Z,17.87
2022-09-07T05:47:53.355Z,17.86
2022-09-07T05:48:53.366Z,17.87
2022-09-07T05:49:56.557Z,17.86
2022-09-07T05:50:53.358Z,17.87
2022-09-07T05:51:53.335Z,17.90
2022-09-07T05:52:53.355Z,17.92
2022-09-07T05:53:53.306Z,17.95
2022-09-07T05:54:59.280Z,17.96
2022-09-07T05:55:54.296Z,17.97
2022-09-07T05:56:53.274Z,17.97
2022-09-07T05:57:53.266Z,17.99
2022-09-07T05:58:53.268Z,17.99
2022-09-07T05:59:53.239Z,17.97
2022-09-07T06:00:53.245Z,17.99
2022-09-07T06:01:53.418Z,17.97
2022-09-07T06:02:53.295Z,18.02
2022-09-07T06:03:53.206Z,18.05
2022-09-07T06:04:53.189Z,18.05
2022-09-07T06:05:53.181Z,18.05
2022-09-07T06:07:20.021Z,18.08
2022-09-07T06:07:54.402Z,18.11
2022-09-07T06:08:53.158Z,18.11
2022-09-07T06:10:54.153Z,18.17
2022-09-07T06:11:53.147Z,18.18
2022-09-07T06:12:53.097Z,18.18
2022-09-07T06:13:53.113Z,18.21
2022-09-07T06:14:53.080Z,18.20
2022-09-07T06:15:53.091Z,18.21
2022-09-07T06:16:53.113Z,18.23
2022-09-07T06:17:53.058Z,18.25
2022-09-07T06:18:53.069Z,18.26
2022-09-07T06:19:53.026Z,18.30
2022-09-07T06:20:53.018Z,18.27
2022-09-07T06:21:53.024Z,18.30
2022-09-07T06:22:52.994Z,18.36
2022-09-07T06:23:53.015Z,18.37
2022-09-07T06:24:52.972Z,18.39
2022-09-07T06:25:52.953Z,18.41
2022-09-07T06:26:52.958Z,18.42
2022-09-07T06:27:53.055Z,18.44
2022-09-07T06:28:57.174Z,18.47
2022-09-07T06:29:52.917Z,18.52
2022-09-07T06:30:52.917Z,18.60
2022-09-07T06:32:53.900Z,18.67
2022-09-07T06:33:52.870Z,18.69
2022-09-07T06:34:52.866Z,18.73
2022-09-07T06:35:52.854Z,18.76
2022-09-07T06:36:52.833Z,18.80
2022-09-07T06:37:52.847Z,18.78
2022-09-07T06:38:52.886Z,18.81
2022-09-07T06:39:52.860Z,18.82
2022-09-07T06:42:01.251Z,18.92
2022-09-07T06:42:53.773Z,18.99
2022-09-07T06:43:52.772Z,19.00
2022-09-07T06:44:52.762Z,19.04
2022-09-07T06:45:52.875Z,19.10
2022-09-07T06:47:53.759Z,19.18
2022-09-07T06:48:52.717Z,19.22
2022-09-07T06:49:52.733Z,19.25
2022-09-07T06:50:52.686Z,19.28
2022-09-07T06:51:52.681Z,19.28
2022-09-07T06:55:01.198Z,19.36
2022-09-07T06:55:53.643Z,19.36
2022-09-07T06:56:52.641Z,19.39
2022-09-07T06:57:52.626Z,19.43
2022-09-07T06:58:52.608Z,19.43
2022-09-07T06:59:52.613Z,19.44
2022-09-07T07:00:52.632Z,19.51
2022-09-07T07:01:52.576Z,19.61
2022-09-07T07:02:52.619Z,19.65
2022-09-07T07:03:52.569Z,19.71
2022-09-07T07:04:52.544Z,19.74
2022-09-07T07:05:52.530Z,19.74
2022-09-07T07:06:52.522Z,19.80
2022-09-07T07:07:52.523Z,19.86
2022-09-07T07:08:52.534Z,19.92
2022-09-07T07:09:52.723Z,20.01
2022-09-07T07:10:52.487Z,20.06
2022-09-07T07:11:52.478Z,20.16
2022-09-07T07:12:52.449Z,20.21
2022-09-07T07:13:52.454Z,20.29
2022-09-07T07:14:52.480Z,20.36
2022-09-07T07:15:52.463Z,20.42
2022-09-07T07:16:52.408Z,20.42
2022-09-07T07:17:58.397Z,20.43
2022-09-07T07:18:53.409Z,20.48
2022-09-07T07:19:52.391Z,20.47
2022-09-07T07:20:52.368Z,20.48
2022-09-07T07:22:53.357Z,20.61
2022-09-07T07:23:52.341Z,20.66
2022-09-07T07:24:52.327Z,20.79
2022-09-07T07:25:52.320Z,20.88
2022-09-07T07:26:52.309Z,20.95
2022-09-07T07:27:52.408Z,21.06
2022-09-07T07:29:53.280Z,21.24
2022-09-07T07:30:52.263Z,21.29
2022-09-07T07:31:52.909Z,21.34
2022-09-07T07:32:52.263Z,21.42
2022-09-07T07:33:52.303Z,21.47
2022-09-07T07:34:52.218Z,21.52
2022-09-07T07:35:52.209Z,21.52
2022-09-07T07:36:52.205Z,21.52
2022-09-07T07:37:52.208Z,21.56
2022-09-07T07:39:00.041Z,21.61
2022-09-07T07:41:53.321Z,21.61
2022-09-07T07:42:52.132Z,21.64
2022-09-07T07:43:52.133Z,21.67
2022-09-07T07:46:52.163Z,21.71
2022-09-07T07:47:52.080Z,21.80
2022-09-07T07:48:52.068Z,21.90
2022-09-07T07:50:30.593Z,21.94
2022-09-07T07:50:53.044Z,22.00
2022-09-07T07:53:41.143Z,22.09
2022-09-07T07:53:53.054Z,22.10
2022-09-07T07:54:52.005Z,22.06
2022-09-07T07:55:52.016Z,22.06
2022-09-07T07:56:51.997Z,22.06
2022-09-07T07:57:51.962Z,22.09
2022-09-07T07:58:51.969Z,22.10
2022-09-07T07:59:51.945Z,22.20
2022-09-07T08:00:56.081Z,22.22
2022-09-07T08:01:52.062Z,22.27
2022-09-07T08:02:51.986Z,22.27
2022-09-07T08:03:51.910Z,22.24
2022-09-07T08:04:51.890Z,22.27
2022-09-07T08:05:51.898Z,22.30
2022-09-07T08:06:51.888Z,22.40
2022-09-07T08:07:51.934Z,22.52
2022-09-07T08:08:51.860Z,22.67
2022-09-07T08:09:51.852Z,22.79
2022-09-07T08:10:52.071Z,22.92
2022-09-07T08:11:51.819Z,23.02
2022-09-07T08:12:51.821Z,23.15
2022-09-07T08:13:51.822Z,23.22
2022-09-07T08:14:51.782Z,23.32
2022-09-07T08:15:51.817Z,23.38
2022-09-07T08:16:51.770Z,23.42
2022-09-07T08:17:51.776Z,23.42
2022-09-07T08:18:51.762Z,23.42
2022-09-07T08:19:51.828Z,23.46
2022-09-07T08:20:51.730Z,23.54
2022-09-07T08:21:51.716Z,23.69
2022-09-07T08:22:51.706Z,23.80
2022-09-07T08:23:51.697Z,23.87
2022-09-07T08:24:51.688Z,23.88
2022-09-07T08:25:51.689Z,23.93
2022-09-07T08:26:51.675Z,23.95
2022-09-07T08:27:51.667Z,23.95
2022-09-07T08:28:51.643Z,24.00
2022-09-07T08:29:51.704Z,24.03
2022-09-07T08:30:51.631Z,23.97
2022-09-07T08:31:51.693Z,23.94
2022-09-07T08:32:51.642Z,23.97
2022-09-07T08:33:51.594Z,24.02
2022-09-07T08:34:51.574Z,24.03
2022-09-07T08:35:51.570Z,24.06
2022-09-07T08:36:51.577Z,24.06
2022-09-07T08:37:51.532Z,24.03
2022-09-07T08:38:51.555Z,23.98
2022-09-07T08:39:51.570Z,23.98
2022-09-07T08:40:51.531Z,24.00
2022-09-07T08:41:51.653Z,23.94
2022-09-07T08:42:51.519Z,23.93
2022-09-07T08:43:51.488Z,23.87
2022-09-07T08:44:51.470Z,23.87
2022-09-07T08:45:51.442Z,23.85
2022-09-07T08:46:51.507Z,23.83
2022-09-07T08:47:51.445Z,23.80
2022-09-07T08:48:51.490Z,23.78
2022-09-07T08:49:51.432Z,23.72
2022-09-07T08:50:51.422Z,23.63
2022-09-07T08:51:51.398Z,23.60
2022-09-07T08:52:51.386Z,23.60
2022-09-07T08:53:51.385Z,23.66
2022-09-07T08:54:51.377Z,23.69
2022-09-07T08:55:51.352Z,23.69
2022-09-07T08:57:52.338Z,23.79
2022-09-07T08:58:51.347Z,23.97
2022-09-07T08:59:51.307Z,24.09
2022-09-07T09:01:30.501Z,24.10
2022-09-07T09:05:52.418Z,24.05
2022-09-07T09:06:51.377Z,24.12
2022-09-07T09:07:51.240Z,24.05
2022-09-07T09:08:51.216Z,24.13
2022-09-07T09:09:51.216Z,24.25
2022-09-07T09:10:51.200Z,24.35
2022-09-07T09:11:51.190Z,24.43
2022-09-07T09:12:52.196Z,24.42
2022-09-07T09:13:51.157Z,24.52
2022-09-07T09:14:51.163Z,24.55
2022-09-07T09:15:51.267Z,24.55
2022-09-07T09:16:51.135Z,24.64
2022-09-07T09:17:51.122Z,24.76
2022-09-07T09:18:51.141Z,24.62
2022-09-07T09:19:51.113Z,24.42
2022-09-07T09:20:51.119Z,24.28
2022-09-07T09:21:51.111Z,24.37
2022-09-07T09:22:51.078Z,24.45
2022-09-07T09:23:51.073Z,24.55
2022-09-07T09:24:51.059Z,24.65
2022-09-07T09:25:51.041Z,24.67
2022-09-07T09:27:51.023Z,24.58
2022-09-07T09:28:51.014Z,24.68
2022-09-07T09:29:50.990Z,24.83
2022-09-07T09:30:51.032Z,24.99
2022-09-07T09:31:50.971Z,25.06
2022-09-07T09:32:50.963Z,25.15
2022-09-07T09:33:50.949Z,25.17
2022-09-07T09:34:50.950Z,25.17
2022-09-07T09:35:50.926Z,24.91
2022-09-07T09:36:50.922Z,24.78
2022-09-07T09:37:50.908Z,24.68
2022-09-07T09:38:50.910Z,24.60
2022-09-07T09:39:53.994Z,24.60
2022-09-07T09:40:51.874Z,24.68
2022-09-07T09:41:50.863Z,24.71
2022-09-07T09:42:50.854Z,24.57
2022-09-07T09:43:50.966Z,24.28
2022-09-07T09:44:50.863Z,24.09
2022-09-07T09:47:29.628Z,24.24
2022-09-07T09:47:51.848Z,24.20
2022-09-07T09:48:50.806Z,24.30
2022-09-07T09:49:50.782Z,24.24
2022-09-07T09:52:52.174Z,24.20
2022-09-07T09:53:50.742Z,24.42
2022-09-07T09:54:50.728Z,24.42
2022-09-07T09:55:50.708Z,24.53
2022-09-07T09:56:50.709Z,24.81
2022-09-07T09:59:56.788Z,26.17
2022-09-07T10:00:02.756Z,26.55
2022-09-07T10:04:50.621Z,26.52
2022-09-07T10:05:50.630Z,26.09
2022-09-07T10:06:50.606Z,25.54
2022-09-07T10:07:50.583Z,25.32
2022-09-07T10:08:50.573Z,25.18
2022-09-07T10:09:50.621Z,25.13
2022-09-07T10:10:50.585Z,25.05
2022-09-07T10:12:06.762Z,25.00
2022-09-07T10:12:51.530Z,25.02
2022-09-07T10:13:50.534Z,25.08
2022-09-07T10:14:50.685Z,25.18
2022-09-07T10:15:50.547Z,25.23
2022-09-07T10:16:50.496Z,25.33
2022-09-07T10:17:50.477Z,25.23
2022-09-07T10:18:50.519Z,25.24
2022-09-07T10:19:50.455Z,25.25
2022-09-07T10:20:50.460Z,25.27
2022-09-07T10:21:50.444Z,25.14
2022-09-07T10:22:51.581Z,25.05
2022-09-07T10:23:50.464Z,24.95
2022-09-07T10:24:50.420Z,24.53
2022-09-07T10:25:50.396Z,24.25
2022-09-07T10:26:50.388Z,24.24
2022-09-07T10:27:50.394Z,24.22
2022-09-07T10:29:51.352Z,24.32
2022-09-07T10:30:50.387Z,24.49
2022-09-07T10:31:50.339Z,24.76
2022-09-07T10:32:50.329Z,25.13
2022-09-07T10:34:51.351Z,25.62
2022-09-07T10:35:50.308Z,25.82
2022-09-07T10:36:50.279Z,26.10
2022-09-07T10:37:50.281Z,26.21
2022-09-07T10:38:50.277Z,26.25
2022-09-07T10:39:50.278Z,26.26
2022-09-07T10:40:50.238Z,26.25
2022-09-07T10:41:50.230Z,26.13
2022-09-07T10:43:51.211Z,25.61
2022-09-07T10:44:50.202Z,25.60
2022-09-07T10:45:50.237Z,25.57
2022-09-07T10:46:57.731Z,25.54
2022-09-07T10:47:51.168Z,25.50
2022-09-07T10:48:50.167Z,25.42
2022-09-07T10:50:51.145Z,25.05
2022-09-07T10:51:50.121Z,25.00
2022-09-07T10:52:50.132Z,25.17
2022-09-07T10:54:29.974Z,25.36
2022-09-07T10:54:51.132Z,25.52
2022-09-07T10:55:50.100Z,25.64
2022-09-07T10:56:50.076Z,25.42
2022-09-07T10:57:50.051Z,25.38
2022-09-07T10:59:05.324Z,25.18
2022-09-07T11:00:51.030Z,25.36
2022-09-07T11:01:50.064Z,25.51
2022-09-07T11:03:51.070Z,25.70
2022-09-07T11:04:49.997Z,25.69
2022-09-07T11:05:49.976Z,25.54
2022-09-07T11:06:49.974Z,25.51
2022-09-07T11:07:49.954Z,25.55
2022-09-07T11:09:50.937Z,25.73
2022-09-07T11:10:49.936Z,25.76
2022-09-07T11:12:05.343Z,25.85
2022-09-07T11:12:50.904Z,26.01
2022-09-07T11:14:09.330Z,26.15
2022-09-07T11:14:50.899Z,26.13
2022-09-07T11:15:49.945Z,26.06
2022-09-07T11:16:50.975Z,26.09
2022-09-07T11:17:52.945Z,26.06
2022-09-07T11:18:50.110Z,26.13
2022-09-07T11:19:49.847Z,26.20
2022-09-07T11:20:49.818Z,26.28
2022-09-07T11:21:57.100Z,26.30
2022-09-07T11:22:50.822Z,26.23
2022-09-07T11:23:49.776Z,25.88
2022-09-07T11:25:29.011Z,25.61
2022-09-07T11:25:52.155Z,25.58
2022-09-07T11:26:49.774Z,25.51
2022-09-07T11:27:49.739Z,25.61
2022-09-07T11:29:29.212Z,25.69
2022-09-07T11:29:50.761Z,25.80
2022-09-07T11:30:50.026Z,26.07
2022-09-07T11:31:49.720Z,26.44
2022-09-07T11:32:49.728Z,26.65
2022-09-07T11:34:52.172Z,26.69
2022-09-07T11:35:49.674Z,26.67
2022-09-07T11:36:49.660Z,26.72
2022-09-07T11:37:49.643Z,26.87
2022-09-07T11:38:49.646Z,27.17
2022-09-07T11:39:49.670Z,27.40
2022-09-07T11:40:49.635Z,27.51
2022-09-07T11:41:49.601Z,27.34
2022-09-07T11:42:49.631Z,26.99
2022-09-07T11:43:49.578Z,26.58
2022-09-07T11:44:49.564Z,26.48
2022-09-07T11:45:49.604Z,26.23
2022-09-07T11:46:49.562Z,26.35
2022-09-07T11:47:49.577Z,26.58
2022-09-07T11:48:49.538Z,26.67
2022-09-07T11:49:53.313Z,26.92
2022-09-07T11:50:50.528Z,27.06
2022-09-07T11:51:53.702Z,27.09
2022-09-07T11:52:53.707Z,27.36
2022-09-07T11:53:49.480Z,27.60
2022-09-07T11:54:49.475Z,27.93
2022-09-07T11:55:49.456Z,27.96
2022-09-07T11:56:49.456Z,28.21
2022-09-07T11:57:53.596Z,28.51
2022-09-07T11:58:50.418Z,28.33
2022-09-07T11:59:49.443Z,28.25
2022-09-07T12:00:49.428Z,28.30
2022-09-07T12:01:49.418Z,28.49
2022-09-07T12:02:59.376Z,28.56
2022-09-07T12:03:50.519Z,28.54
2022-09-07T12:04:54.172Z,28.37
2022-09-07T12:05:50.385Z,27.77
2022-09-07T12:06:49.394Z,27.37
2022-09-07T12:07:49.346Z,27.21
2022-09-07T12:08:49.351Z,26.94
2022-09-07T12:09:49.326Z,26.95
2022-09-07T12:10:49.328Z,27.12
2022-09-07T12:11:49.355Z,27.37
2022-09-07T12:12:49.307Z,27.57
2022-09-07T12:13:49.276Z,27.70
2022-09-07T12:14:49.267Z,28.02
2022-09-07T12:15:49.333Z,28.33
2022-09-07T12:16:49.256Z,28.66
2022-09-07T12:17:49.237Z,28.48
2022-09-07T12:18:49.455Z,28.34
2022-09-07T12:19:49.212Z,28.46
2022-09-07T12:20:49.214Z,28.54
2022-09-07T12:21:49.201Z,28.76
2022-09-07T12:22:49.191Z,28.56
2022-09-07T12:23:49.187Z,28.55
2022-09-07T12:24:49.160Z,28.49
2022-09-07T12:25:49.180Z,28.68
2022-09-07T12:26:49.161Z,28.92
2022-09-07T12:27:49.147Z,28.81
2022-09-07T12:28:49.128Z,28.77
2022-09-07T12:29:49.122Z,28.98
2022-09-07T12:30:49.172Z,29.08
2022-09-07T12:32:54.533Z,29.27
2022-09-07T12:33:50.116Z,29.55
2022-09-07T12:34:49.085Z,29.43
2022-09-07T12:35:49.071Z,29.53
2022-09-07T12:36:49.062Z,29.57
2022-09-07T12:37:49.043Z,29.57
2022-09-07T12:38:49.040Z,28.61
2022-09-07T12:39:49.092Z,28.09
2022-09-07T12:40:49.002Z,28.04
2022-09-07T12:41:49.428Z,28.44
2022-09-07T12:42:48.995Z,28.98
2022-09-07T12:43:48.981Z,29.48
2022-09-07T12:44:49.030Z,29.86
2022-09-07T12:45:48.994Z,29.76
2022-09-07T12:46:49.025Z,29.46
2022-09-07T12:47:49.264Z,29.23
2022-09-07T12:48:49.159Z,29.21
2022-09-07T12:49:48.946Z,29.24
2022-09-07T12:50:48.917Z,29.23
2022-09-07T12:52:14.919Z,29.48
2022-09-07T12:52:49.889Z,29.37
2022-09-07T12:53:48.914Z,29.18
2022-09-07T12:55:04.444Z,29.31
2022-09-07T12:57:29.053Z,29.67
2022-09-07T12:57:49.848Z,29.64
2022-09-07T12:58:48.841Z,29.28
2022-09-07T12:59:48.828Z,28.85
2022-09-07T13:00:48.823Z,28.55
2022-09-07T13:01:48.833Z,28.00
2022-09-07T13:02:49.030Z,27.87
2022-09-07T13:03:51.161Z,27.92
2022-09-07T13:04:48.793Z,27.92
2022-09-07T13:05:48.783Z,27.81
2022-09-07T13:07:04.069Z,28.12
2022-09-07T13:07:49.760Z,28.68
2022-09-07T13:08:48.748Z,28.96
2022-09-07T13:09:48.743Z,28.98
2022-09-07T13:10:49.209Z,28.55
2022-09-07T13:11:48.711Z,27.78
2022-09-07T13:12:57.322Z,27.37
2022-09-07T13:14:08.739Z,27.36
2022-09-07T13:14:50.860Z,27.72
2022-09-07T13:15:49.008Z,28.15
2022-09-07T13:17:49.691Z,29.23
2022-09-07T13:18:48.639Z,29.64
2022-09-07T13:19:48.625Z,29.80
2022-09-07T13:20:49.110Z,29.89
2022-09-07T13:21:48.612Z,30.24
2022-09-07T13:22:48.608Z,30.26
2022-09-07T13:23:48.615Z,30.16
2022-09-07T13:24:48.589Z,30.39
2022-09-07T13:25:48.593Z,30.69
2022-09-07T13:26:51.217Z,30.76
2022-09-07T13:27:48.569Z,31.09
2022-09-07T13:28:48.544Z,30.11
2022-09-07T13:29:48.542Z,29.34
2022-09-07T13:30:48.566Z,29.14
2022-09-07T13:31:48.523Z,29.15
2022-09-07T13:33:49.498Z,28.34
2022-09-07T13:34:48.582Z,28.34
2022-09-07T13:35:48.473Z,28.83
2022-09-07T13:36:48.481Z,29.53
2022-09-07T13:37:48.469Z,30.32
2022-09-07T13:38:48.446Z,30.20
2022-09-07T13:39:48.492Z,29.71
2022-09-07T13:40:48.453Z,29.61
2022-09-07T13:41:48.419Z,29.52
2022-09-07T13:42:48.415Z,29.48
2022-09-07T13:43:48.397Z,29.04
2022-09-07T13:44:48.436Z,29.00
2022-09-07T13:45:48.437Z,28.76
2022-09-07T13:46:48.384Z,29.00
2022-09-07T13:47:48.683Z,28.86
2022-09-07T13:48:48.352Z,28.88
2022-09-07T13:49:51.343Z,29.42
2022-09-07T13:50:49.433Z,29.82
2022-09-07T13:51:48.325Z,29.14
2022-09-07T13:52:48.326Z,28.31
2022-09-07T13:53:48.318Z,27.87
2022-09-07T13:54:48.349Z,27.93
2022-09-07T13:55:48.294Z,28.25
2022-09-07T13:56:48.266Z,28.83
2022-09-07T13:57:48.262Z,29.30
2022-09-07T13:58:48.252Z,29.05
2022-09-07T13:59:48.244Z,29.04
2022-09-07T14:00:48.235Z,29.33